sensor_id;sensor_type;location;lat;lon;timestamp;temperature;humidity
44215;DHT22;29884;47.450;19.124;2022-08-11T00:00:10;20.60;76.70
44215;DHT22;29884;47.450;19.124;2022-08-11T00:02:44;20.60;76.80
44215;DHT22;29884;47.450;19.124;2022-08-11T00:05:21;20.60;77.10
44215;DHT22;29884;47.450;19.124;2022-08-11T00:10:16;20.60;77.30
44215;DHT22;29884;47.450;19.124;2022-08-11T00:12:43;20.60;78.20
44215;DHT22;29884;47.450;19.124;2022-08-11T00:15:14;20.60;77.70
44215;DHT22;29884;47.450;19.124;2022-08-11T00:17:41;20.60;78.10
44215;DHT22;29884;47.450;19.124;2022-08-11T00:20:11;20.60;78.80
44215;DHT22;29884;47.450;19.124;2022-08-11T00:22:39;20.60;78.20
44215;DHT22;29884;47.450;19.124;2022-08-11T00:25:18;20.60;78.70
44215;DHT22;29884;47.450;19.124;2022-08-11T00:27:46;20.50;79.10
44215;DHT22;29884;47.450;19.124;2022-08-11T00:30:12;20.50;79.20
44215;DHT22;29884;47.450;19.124;2022-08-11T00:32:41;20.50;79.40
44215;DHT22;29884;47.450;19.124;2022-08-11T00:35:12;20.50;79.80
44215;DHT22;29884;47.450;19.124;2022-08-11T00:37:38;20.50;79.60
44215;DHT22;29884;47.450;19.124;2022-08-11T00:40:16;20.50;80.00
44215;DHT22;29884;47.450;19.124;2022-08-11T00:45:22;20.40;80.70
44215;DHT22;29884;47.450;19.124;2022-08-11T00:51:04;20.30;81.10
44215;DHT22;29884;47.450;19.124;2022-08-11T01:02:13;20.20;82.20
44215;DHT22;29884;47.450;19.124;2022-08-11T01:13:18;20.20;83.40
44215;DHT22;29884;47.450;19.124;2022-08-11T01:41:45;19.80;87.00
44215;DHT22;29884;47.450;19.124;2022-08-11T01:47:32;19.80;88.10
44215;DHT22;29884;47.450;19.124;2022-08-11T01:58:35;19.60;90.00
44215;DHT22;29884;47.450;19.124;2022-08-11T02:03:42;19.60;90.20
44215;DHT22;29884;47.450;19.124;2022-08-11T02:12:27;19.50;90.50
44215;DHT22;29884;47.450;19.124;2022-08-11T02:15:33;19.50;90.70
44215;DHT22;29884;47.450;19.124;2022-08-11T02:20:51;19.40;91.00
44215;DHT22;29884;47.450;19.124;2022-08-11T02:23:54;19.50;91.10
44215;DHT22;29884;47.450;19.124;2022-08-11T02:32:12;19.40;91.50
44215;DHT22;29884;47.450;19.124;2022-08-11T02:35:19;19.40;91.60
44215;DHT22;29884;47.450;19.124;2022-08-11T02:40:56;19.40;92.00
44215;DHT22;29884;47.450;19.124;2022-08-11T02:44:09;19.40;92.10
44215;DHT22;29884;47.450;19.124;2022-08-11T02:47:10;19.30;92.80
44215;DHT22;29884;47.450;19.124;2022-08-11T02:50:02;19.30;93.60
44215;DHT22;29884;47.450;19.124;2022-08-11T02:52:56;19.20;92.70
44215;DHT22;29884;47.450;19.124;2022-08-11T03:03:45;19.10;93.80
44215;DHT22;29884;47.450;19.124;2022-08-11T03:23:08;19.20;93.70
44215;DHT22;29884;47.450;19.124;2022-08-11T03:26:01;19.20;93.50
44215;DHT22;29884;47.450;19.124;2022-08-11T03:28:33;19.20;93.40
44215;DHT22;29884;47.450;19.124;2022-08-11T03:34:08;19.20;93.70
44215;DHT22;29884;47.450;19.124;2022-08-11T03:51:14;19.20;93.90
44215;DHT22;29884;47.450;19.124;2022-08-11T03:54:13;19.20;94.10
44215;DHT22;29884;47.450;19.124;2022-08-11T04:13:29;19.00;94.50
44215;DHT22;29884;47.450;19.124;2022-08-11T04:27:50;19.10;94.90
44215;DHT22;29884;47.450;19.124;2022-08-11T04:31:05;19.10;94.70
44215;DHT22;29884;47.450;19.124;2022-08-11T04:36:45;19.20;94.60
44215;DHT22;29884;47.450;19.124;2022-08-11T04:43:30;19.30;94.70
44215;DHT22;29884;47.450;19.124;2022-08-11T04:48:57;19.50;94.30
44215;DHT22;29884;47.450;19.124;2022-08-11T05:13:31;19.90;92.80
44215;DHT22;29884;47.450;19.124;2022-08-11T05:16:23;19.90;92.80
44215;DHT22;29884;47.450;19.124;2022-08-11T05:19:16;20.00;92.70
44215;DHT22;29884;47.450;19.124;2022-08-11T05:22:02;20.00;92.60
44215;DHT22;29884;47.450;19.124;2022-08-11T05:24:55;20.00;92.70
44215;DHT22;29884;47.450;19.124;2022-08-11T05:28:14;20.10;92.40
44215;DHT22;29884;47.450;19.124;2022-08-11T05:31:03;20.10;93.20
44215;DHT22;29884;47.450;19.124;2022-08-11T05:33:51;20.10;92.50
44215;DHT22;29884;47.450;19.124;2022-08-11T05:36:51;20.20;92.50
44215;DHT22;29884;47.450;19.124;2022-08-11T05:39:24;20.30;92.70
44215;DHT22;29884;47.450;19.124;2022-08-11T05:42:09;20.30;93.00
44215;DHT22;29884;47.450;19.124;2022-08-11T05:45:04;20.50;92.90
44215;DHT22;29884;47.450;19.124;2022-08-11T05:47:53;20.60;92.10
44215;DHT22;29884;47.450;19.124;2022-08-11T05:50:38;20.80;91.70
44215;DHT22;29884;47.450;19.124;2022-08-11T05:53:24;20.80;91.30
44215;DHT22;29884;47.450;19.124;2022-08-11T05:56:09;21.00;90.70
44215;DHT22;29884;47.450;19.124;2022-08-11T05:58:52;20.90;90.50
44215;DHT22;29884;47.450;19.124;2022-08-11T06:01:24;20.90;90.70
44215;DHT22;29884;47.450;19.124;2022-08-11T06:03:54;20.90;90.30
44215;DHT22;29884;47.450;19.124;2022-08-11T06:09:27;21.10;90.00
44215;DHT22;29884;47.450;19.124;2022-08-11T06:11:56;21.30;89.80
44215;DHT22;29884;47.450;19.124;2022-08-11T06:14:23;21.40;90.30
44215;DHT22;29884;47.450;19.124;2022-08-11T06:16:51;21.60;89.40
44215;DHT22;29884;47.450;19.124;2022-08-11T06:19:21;21.50;88.40
44215;DHT22;29884;47.450;19.124;2022-08-11T06:21:49;21.50;89.30
44215;DHT22;29884;47.450;19.124;2022-08-11T06:24:17;21.70;87.50
44215;DHT22;29884;47.450;19.124;2022-08-11T06:26:49;21.70;87.40
44215;DHT22;29884;47.450;19.124;2022-08-11T06:29:16;21.70;87.20
44215;DHT22;29884;47.450;19.124;2022-08-11T06:31:56;21.70;86.80
44215;DHT22;29884;47.450;19.124;2022-08-11T06:37:29;21.80;85.60
44215;DHT22;29884;47.450;19.124;2022-08-11T06:45:39;22.00;84.30
44215;DHT22;29884;47.450;19.124;2022-08-11T06:48:15;22.00;84.50
44215;DHT22;29884;47.450;19.124;2022-08-11T06:50:50;22.10;85.00
44215;DHT22;29884;47.450;19.124;2022-08-11T06:56:11;22.20;83.50
44215;DHT22;29884;47.450;19.124;2022-08-11T06:58:58;22.20;82.50
44215;DHT22;29884;47.450;19.124;2022-08-11T07:04:30;22.40;82.70
44215;DHT22;29884;47.450;19.124;2022-08-11T07:13:43;22.70;80.60
44215;DHT22;29884;47.450;19.124;2022-08-11T07:16:29;22.80;80.20
44215;DHT22;29884;47.450;19.124;2022-08-11T07:19:02;22.90;79.60
44215;DHT22;29884;47.450;19.124;2022-08-11T07:21:47;22.90;79.30
44215;DHT22;29884;47.450;19.124;2022-08-11T07:24:45;22.90;79.40
44215;DHT22;29884;47.450;19.124;2022-08-11T07:28:00;23.10;79.30
44215;DHT22;29884;47.450;19.124;2022-08-11T07:30:46;23.40;77.00
44215;DHT22;29884;47.450;19.124;2022-08-11T07:33:20;23.40;76.00
44215;DHT22;29884;47.450;19.124;2022-08-11T07:35:51;23.50;75.40
44215;DHT22;29884;47.450;19.124;2022-08-11T07:38:30;23.50;74.90
44215;DHT22;29884;47.450;19.124;2022-08-11T07:41:13;23.60;72.50
44215;DHT22;29884;47.450;19.124;2022-08-11T07:43:40;23.50;73.00
44215;DHT22;29884;47.450;19.124;2022-08-11T07:46:07;23.60;74.40
44215;DHT22;29884;47.450;19.124;2022-08-11T07:48:51;23.60;73.50
44215;DHT22;29884;47.450;19.124;2022-08-11T07:51:37;23.80;73.50
44215;DHT22;29884;47.450;19.124;2022-08-11T07:54:22;23.80;72.20
44215;DHT22;29884;47.450;19.124;2022-08-11T07:56:48;24.10;72.80
44215;DHT22;29884;47.450;19.124;2022-08-11T07:59:16;24.40;72.50
44215;DHT22;29884;47.450;19.124;2022-08-11T08:02:02;24.40;70.90
44215;DHT22;29884;47.450;19.124;2022-08-11T08:04:47;24.30;70.80
44215;DHT22;29884;47.450;19.124;2022-08-11T08:07:33;24.50;69.20
44215;DHT22;29884;47.450;19.124;2022-08-11T08:10:18;24.70;70.50
44215;DHT22;29884;47.450;19.124;2022-08-11T08:13:05;24.60;69.40
44215;DHT22;29884;47.450;19.124;2022-08-11T08:15:51;25.10;69.80
44215;DHT22;29884;47.450;19.124;2022-08-11T08:18:36;25.50;68.50
44215;DHT22;29884;47.450;19.124;2022-08-11T08:21:04;25.40;68.80
44215;DHT22;29884;47.450;19.124;2022-08-11T08:23:38;25.50;66.20
44215;DHT22;29884;47.450;19.124;2022-08-11T08:26:10;25.50;65.60
44215;DHT22;29884;47.450;19.124;2022-08-11T08:28:57;25.80;66.60
44215;DHT22;29884;47.450;19.124;2022-08-11T08:31:46;25.70;67.00
44215;DHT22;29884;47.450;19.124;2022-08-11T08:34:14;25.60;66.00
44215;DHT22;29884;47.450;19.124;2022-08-11T08:36:48;25.60;65.00
44215;DHT22;29884;47.450;19.124;2022-08-11T08:39:19;25.90;63.20
44215;DHT22;29884;47.450;19.124;2022-08-11T08:41:49;26.10;64.70
44215;DHT22;29884;47.450;19.124;2022-08-11T08:44:17;26.30;66.10
44215;DHT22;29884;47.450;19.124;2022-08-11T08:46:50;26.30;62.90
44215;DHT22;29884;47.450;19.124;2022-08-11T08:49:21;26.70;63.10
44215;DHT22;29884;47.450;19.124;2022-08-11T08:51:52;26.50;59.80
44215;DHT22;29884;47.450;19.124;2022-08-11T08:54:29;26.40;60.00
44215;DHT22;29884;47.450;19.124;2022-08-11T08:56:58;26.70;60.00
44215;DHT22;29884;47.450;19.124;2022-08-11T08:59:26;26.80;58.40
44215;DHT22;29884;47.450;19.124;2022-08-11T09:01:57;26.90;58.20
44215;DHT22;29884;47.450;19.124;2022-08-11T09:04:27;27.00;58.70
44215;DHT22;29884;47.450;19.124;2022-08-11T09:06:57;26.80;57.40
44215;DHT22;29884;47.450;19.124;2022-08-11T09:09:24;27.00;56.20
44215;DHT22;29884;47.450;19.124;2022-08-11T09:11:50;26.50;57.00
44215;DHT22;29884;47.450;19.124;2022-08-11T09:16:50;26.20;57.20
44215;DHT22;29884;47.450;19.124;2022-08-11T09:19:21;26.50;58.20
44215;DHT22;29884;47.450;19.124;2022-08-11T09:21:49;27.00;57.80
44215;DHT22;29884;47.450;19.124;2022-08-11T09:24:36;27.30;55.50
44215;DHT22;29884;47.450;19.124;2022-08-11T09:27:21;27.50;55.00
44215;DHT22;29884;47.450;19.124;2022-08-11T09:29:47;27.50;54.20
44215;DHT22;29884;47.450;19.124;2022-08-11T09:32:19;26.90;55.90
44215;DHT22;29884;47.450;19.124;2022-08-11T09:34:46;26.70;55.20
44215;DHT22;29884;47.450;19.124;2022-08-11T09:37:12;27.20;55.20
44215;DHT22;29884;47.450;19.124;2022-08-11T09:39:58;27.60;55.00
44215;DHT22;29884;47.450;19.124;2022-08-11T09:42:42;28.20;54.90
44215;DHT22;29884;47.450;19.124;2022-08-11T09:45:28;28.70;53.80
44215;DHT22;29884;47.450;19.124;2022-08-11T09:47:57;28.40;52.60
44215;DHT22;29884;47.450;19.124;2022-08-11T09:50:23;28.10;52.20
44215;DHT22;29884;47.450;19.124;2022-08-11T09:52:49;27.90;52.60
44215;DHT22;29884;47.450;19.124;2022-08-11T09:55:15;27.60;51.70
44215;DHT22;29884;47.450;19.124;2022-08-11T09:57:46;27.50;52.30
44215;DHT22;29884;47.450;19.124;2022-08-11T10:00:35;27.40;52.70
44215;DHT22;29884;47.450;19.124;2022-08-11T10:03:17;27.10;52.90
44215;DHT22;29884;47.450;19.124;2022-08-11T10:05:46;26.90;53.30
44215;DHT22;29884;47.450;19.124;2022-08-11T10:08:31;27.00;53.40
44215;DHT22;29884;47.450;19.124;2022-08-11T10:10:59;27.40;51.50
44215;DHT22;29884;47.450;19.124;2022-08-11T10:13:30;27.70;50.50
44215;DHT22;29884;47.450;19.124;2022-08-11T10:16:01;27.60;50.10
44215;DHT22;29884;47.450;19.124;2022-08-11T10:18:39;27.10;50.80
44215;DHT22;29884;47.450;19.124;2022-08-11T10:21:50;26.90;52.50
44215;DHT22;29884;47.450;19.124;2022-08-11T10:24:09;27.60;50.30
44215;DHT22;29884;47.450;19.124;2022-08-11T10:26:55;28.10;50.00
44215;DHT22;29884;47.450;19.124;2022-08-11T10:29:32;27.70;50.00
44215;DHT22;29884;47.450;19.124;2022-08-11T10:32:26;27.70;50.70
44215;DHT22;29884;47.450;19.124;2022-08-11T10:35:11;27.40;50.60
44215;DHT22;29884;47.450;19.124;2022-08-11T10:37:40;27.30;51.10
44215;DHT22;29884;47.450;19.124;2022-08-11T10:40:08;27.10;52.60
44215;DHT22;29884;47.450;19.124;2022-08-11T10:42:36;27.40;53.10
44215;DHT22;29884;47.450;19.124;2022-08-11T10:45:24;28.00;53.50
44215;DHT22;29884;47.450;19.124;2022-08-11T10:48:08;28.60;51.90
44215;DHT22;29884;47.450;19.124;2022-08-11T10:50:36;28.80;50.00
44215;DHT22;29884;47.450;19.124;2022-08-11T10:53:20;28.20;50.50
44215;DHT22;29884;47.450;19.124;2022-08-11T10:56:06;27.70;50.80
44215;DHT22;29884;47.450;19.124;2022-08-11T10:58:51;27.90;50.90
44215;DHT22;29884;47.450;19.124;2022-08-11T11:01:32;28.40;51.40
44215;DHT22;29884;47.450;19.124;2022-08-11T11:04:20;28.70;50.10
44215;DHT22;29884;47.450;19.124;2022-08-11T11:07:36;28.60;49.50
44215;DHT22;29884;47.450;19.124;2022-08-11T11:10:00;28.30;49.00
44215;DHT22;29884;47.450;19.124;2022-08-11T11:12:38;29.10;49.20
44215;DHT22;29884;47.450;19.124;2022-08-11T11:15:27;29.30;48.70
44215;DHT22;29884;47.450;19.124;2022-08-11T11:18:26;29.20;48.60
44215;DHT22;29884;47.450;19.124;2022-08-11T11:20:57;29.10;48.50
44215;DHT22;29884;47.450;19.124;2022-08-11T11:34:53;29.80;45.70
44215;DHT22;29884;47.450;19.124;2022-08-11T11:37:25;29.10;44.00
44215;DHT22;29884;47.450;19.124;2022-08-11T11:39:54;29.10;44.30
44215;DHT22;29884;47.450;19.124;2022-08-11T11:42:22;28.80;44.30
44215;DHT22;29884;47.450;19.124;2022-08-11T11:44:49;28.50;44.00
44215;DHT22;29884;47.450;19.124;2022-08-11T11:47:15;28.70;44.80
44215;DHT22;29884;47.450;19.124;2022-08-11T11:49:44;29.20;45.50
44215;DHT22;29884;47.450;19.124;2022-08-11T11:52:14;28.90;45.00
44215;DHT22;29884;47.450;19.124;2022-08-11T11:54:42;28.30;45.40
44215;DHT22;29884;47.450;19.124;2022-08-11T11:57:10;28.20;47.00
44215;DHT22;29884;47.450;19.124;2022-08-11T11:59:55;27.90;47.30
44215;DHT22;29884;47.450;19.124;2022-08-11T12:02:40;27.70;47.10
44215;DHT22;29884;47.450;19.124;2022-08-11T12:05:09;27.60;47.40
44215;DHT22;29884;47.450;19.124;2022-08-11T12:07:36;27.70;48.60
44215;DHT22;29884;47.450;19.124;2022-08-11T12:10:21;27.50;46.30
44215;DHT22;29884;47.450;19.124;2022-08-11T12:12:48;27.30;46.00
44215;DHT22;29884;47.450;19.124;2022-08-11T12:15:33;27.30;45.90
44215;DHT22;29884;47.450;19.124;2022-08-11T12:17:59;27.30;46.20
44215;DHT22;29884;47.450;19.124;2022-08-11T12:20:26;27.70;47.50
44215;DHT22;29884;47.450;19.124;2022-08-11T12:22:53;28.40;46.50
44215;DHT22;29884;47.450;19.124;2022-08-11T12:25:39;28.90;46.10
44215;DHT22;29884;47.450;19.124;2022-08-11T12:28:23;29.10;45.70
44215;DHT22;29884;47.450;19.124;2022-08-11T12:30:50;28.80;44.90
44215;DHT22;29884;47.450;19.124;2022-08-11T12:33:18;28.40;44.60
44215;DHT22;29884;47.450;19.124;2022-08-11T12:35:45;28.10;45.20
44215;DHT22;29884;47.450;19.124;2022-08-11T12:38:13;28.10;45.20
44215;DHT22;29884;47.450;19.124;2022-08-11T12:40:39;28.40;46.10
44215;DHT22;29884;47.450;19.124;2022-08-11T12:43:29;28.50;46.10
44215;DHT22;29884;47.450;19.124;2022-08-11T12:46:20;28.90;45.60
44215;DHT22;29884;47.450;19.124;2022-08-11T12:48:55;28.90;45.20
44215;DHT22;29884;47.450;19.124;2022-08-11T12:51:43;28.80;45.80
44215;DHT22;29884;47.450;19.124;2022-08-11T12:57:25;28.60;46.60
44215;DHT22;29884;47.450;19.124;2022-08-11T13:00:10;28.50;45.00
44215;DHT22;29884;47.450;19.124;2022-08-11T13:02:55;28.40;45.10
44215;DHT22;29884;47.450;19.124;2022-08-11T13:05:45;28.30;47.10
44215;DHT22;29884;47.450;19.124;2022-08-11T13:08:15;28.00;46.50
44215;DHT22;29884;47.450;19.124;2022-08-11T13:10:42;27.90;47.10
44215;DHT22;29884;47.450;19.124;2022-08-11T13:13:28;27.90;47.30
44215;DHT22;29884;47.450;19.124;2022-08-11T13:15:54;28.30;47.50
44215;DHT22;29884;47.450;19.124;2022-08-11T13:18:24;28.30;46.40
44215;DHT22;29884;47.450;19.124;2022-08-11T13:20:55;28.20;46.90
44215;DHT22;29884;47.450;19.124;2022-08-11T13:23:23;28.30;47.00
44215;DHT22;29884;47.450;19.124;2022-08-11T13:25:51;28.20;46.60
44215;DHT22;29884;47.450;19.124;2022-08-11T13:28:19;28.00;47.40
44215;DHT22;29884;47.450;19.124;2022-08-11T13:30:54;27.80;46.80
44215;DHT22;29884;47.450;19.124;2022-08-11T13:33:47;27.80;47.10
44215;DHT22;29884;47.450;19.124;2022-08-11T13:36:19;28.00;47.30
44215;DHT22;29884;47.450;19.124;2022-08-11T13:38:47;28.00;48.00
44215;DHT22;29884;47.450;19.124;2022-08-11T13:41:14;27.80;47.70
44215;DHT22;29884;47.450;19.124;2022-08-11T13:43:58;27.60;48.20
44215;DHT22;29884;47.450;19.124;2022-08-11T13:46:24;27.50;48.80
44215;DHT22;29884;47.450;19.124;2022-08-11T13:48:55;27.40;48.90
44215;DHT22;29884;47.450;19.124;2022-08-11T13:51:23;27.50;49.30
44215;DHT22;29884;47.450;19.124;2022-08-11T13:53:57;27.60;49.50
44215;DHT22;29884;47.450;19.124;2022-08-11T13:56:24;27.70;48.80
44215;DHT22;29884;47.450;19.124;2022-08-11T13:58:51;27.80;48.90
44215;DHT22;29884;47.450;19.124;2022-08-11T14:01:19;27.90;49.10
44215;DHT22;29884;47.450;19.124;2022-08-11T14:03:46;28.20;48.60
44215;DHT22;29884;47.450;19.124;2022-08-11T14:06:14;28.00;47.60
44215;DHT22;29884;47.450;19.124;2022-08-11T14:08:42;27.90;48.50
44215;DHT22;29884;47.450;19.124;2022-08-11T14:11:08;27.70;49.80
44215;DHT22;29884;47.450;19.124;2022-08-11T14:13:54;27.60;50.60
44215;DHT22;29884;47.450;19.124;2022-08-11T14:16:31;27.60;51.60
44215;DHT22;29884;47.450;19.124;2022-08-11T14:19:03;27.50;50.90
44215;DHT22;29884;47.450;19.124;2022-08-11T14:21:34;27.50;50.90
44215;DHT22;29884;47.450;19.124;2022-08-11T14:24:19;27.70;51.20
44215;DHT22;29884;47.450;19.124;2022-08-11T14:26:46;27.50;50.50
44215;DHT22;29884;47.450;19.124;2022-08-11T14:29:15;27.50;50.60
44215;DHT22;29884;47.450;19.124;2022-08-11T14:31:54;27.40;51.00
44215;DHT22;29884;47.450;19.124;2022-08-11T14:34:22;27.50;50.70
44215;DHT22;29884;47.450;19.124;2022-08-11T14:37:01;27.50;51.70
44215;DHT22;29884;47.450;19.124;2022-08-11T14:39:30;27.40;51.00
44215;DHT22;29884;47.450;19.124;2022-08-11T14:42:03;27.10;50.60
44215;DHT22;29884;47.450;19.124;2022-08-11T14:44:50;27.10;51.30
44215;DHT22;29884;47.450;19.124;2022-08-11T14:47:36;27.20;51.10
44215;DHT22;29884;47.450;19.124;2022-08-11T14:50:05;27.20;51.00
44215;DHT22;29884;47.450;19.124;2022-08-11T14:52:32;27.30;51.50
44215;DHT22;29884;47.450;19.124;2022-08-11T14:55:02;27.30;50.50
44215;DHT22;29884;47.450;19.124;2022-08-11T14:57:48;27.30;51.00
44215;DHT22;29884;47.450;19.124;2022-08-11T15:00:15;27.30;51.30
44215;DHT22;29884;47.450;19.124;2022-08-11T15:02:44;27.30;52.10
44215;DHT22;29884;47.450;19.124;2022-08-11T15:05:29;27.20;51.10
44215;DHT22;29884;47.450;19.124;2022-08-11T15:07:57;27.20;51.00
44215;DHT22;29884;47.450;19.124;2022-08-11T15:10:23;27.20;50.70
44215;DHT22;29884;47.450;19.124;2022-08-11T15:12:50;27.20;50.80
44215;DHT22;29884;47.450;19.124;2022-08-11T15:15:17;27.30;50.30
44215;DHT22;29884;47.450;19.124;2022-08-11T15:18:04;27.20;50.90
44215;DHT22;29884;47.450;19.124;2022-08-11T15:20:31;27.20;50.50
44215;DHT22;29884;47.450;19.124;2022-08-11T15:23:16;27.10;50.80
44215;DHT22;29884;47.450;19.124;2022-08-11T15:26:16;27.10;50.70
44215;DHT22;29884;47.450;19.124;2022-08-11T15:28:47;27.10;50.80
44215;DHT22;29884;47.450;19.124;2022-08-11T15:31:35;27.10;50.40
44215;DHT22;29884;47.450;19.124;2022-08-11T15:34:24;26.90;50.80
44215;DHT22;29884;47.450;19.124;2022-08-11T15:37:12;26.80;51.00
44215;DHT22;29884;47.450;19.124;2022-08-11T15:40:00;26.70;51.40
44215;DHT22;29884;47.450;19.124;2022-08-11T15:45:36;26.50;51.40
44215;DHT22;29884;47.450;19.124;2022-08-11T15:51:09;26.40;51.50
44215;DHT22;29884;47.450;19.124;2022-08-11T15:53:46;26.40;51.90
44215;DHT22;29884;47.450;19.124;2022-08-11T15:56:16;26.30;52.10
44215;DHT22;29884;47.450;19.124;2022-08-11T15:58:46;26.30;52.70
44215;DHT22;29884;47.450;19.124;2022-08-11T16:01:31;26.20;53.30
44215;DHT22;29884;47.450;19.124;2022-08-11T16:04:19;26.10;54.40
44215;DHT22;29884;47.450;19.124;2022-08-11T16:09:19;25.90;54.30
44215;DHT22;29884;47.450;19.124;2022-08-11T16:11:46;25.80;55.00
44215;DHT22;29884;47.450;19.124;2022-08-11T16:14:14;25.60;58.40
44215;DHT22;29884;47.450;19.124;2022-08-11T16:16:59;25.40;58.50
44215;DHT22;29884;47.450;19.124;2022-08-11T16:19:27;25.30;58.80
44215;DHT22;29884;47.450;19.124;2022-08-11T16:22:00;25.30;59.80
44215;DHT22;29884;47.450;19.124;2022-08-11T16:24:27;25.20;60.00
44215;DHT22;29884;47.450;19.124;2022-08-11T16:26:54;25.20;58.90
44215;DHT22;29884;47.450;19.124;2022-08-11T16:29:22;25.10;59.10
44215;DHT22;29884;47.450;19.124;2022-08-11T16:31:50;25.10;60.40
44215;DHT22;29884;47.450;19.124;2022-08-11T16:34:36;25.10;61.30
44215;DHT22;29884;47.450;19.124;2022-08-11T16:37:22;25.00;62.40
44215;DHT22;29884;47.450;19.124;2022-08-11T16:40:08;24.80;63.70
44215;DHT22;29884;47.450;19.124;2022-08-11T16:42:36;24.80;64.50
44215;DHT22;29884;47.450;19.124;2022-08-11T16:45:22;24.70;63.30
44215;DHT22;29884;47.450;19.124;2022-08-11T16:48:08;24.80;62.60
44215;DHT22;29884;47.450;19.124;2022-08-11T16:50:34;24.80;63.50
44215;DHT22;29884;47.450;19.124;2022-08-11T16:53:01;24.80;64.20
44215;DHT22;29884;47.450;19.124;2022-08-11T16:55:27;24.80;60.70
44215;DHT22;29884;47.450;19.124;2022-08-11T16:57:58;24.80;59.80
44215;DHT22;29884;47.450;19.124;2022-08-11T17:00:53;24.80;59.80
44215;DHT22;29884;47.450;19.124;2022-08-11T17:03:21;24.80;59.40
44215;DHT22;29884;47.450;19.124;2022-08-11T17:06:06;24.80;60.50
44215;DHT22;29884;47.450;19.124;2022-08-11T17:08:53;24.70;60.20
44215;DHT22;29884;47.450;19.124;2022-08-11T17:11:45;24.80;59.70
44215;DHT22;29884;47.450;19.124;2022-08-11T17:14:45;24.70;60.30
44215;DHT22;29884;47.450;19.124;2022-08-11T17:17:15;24.70;59.80
44215;DHT22;29884;47.450;19.124;2022-08-11T17:19:47;24.70;60.20
44215;DHT22;29884;47.450;19.124;2022-08-11T17:22:14;24.70;59.80
44215;DHT22;29884;47.450;19.124;2022-08-11T17:25:00;24.70;59.40
44215;DHT22;29884;47.450;19.124;2022-08-11T17:27:29;24.70;59.50
44215;DHT22;29884;47.450;19.124;2022-08-11T17:29:58;24.70;59.60
44215;DHT22;29884;47.450;19.124;2022-08-11T17:32:30;24.60;60.00
44215;DHT22;29884;47.450;19.124;2022-08-11T17:35:19;24.50;60.80
44215;DHT22;29884;47.450;19.124;2022-08-11T17:40:40;24.10;62.90
44215;DHT22;29884;47.450;19.124;2022-08-11T17:43:28;23.90;63.80
44215;DHT22;29884;47.450;19.124;2022-08-11T17:46:16;23.80;64.80
44215;DHT22;29884;47.450;19.124;2022-08-11T17:49:03;23.60;65.30
44215;DHT22;29884;47.450;19.124;2022-08-11T17:51:32;23.50;66.20
44215;DHT22;29884;47.450;19.124;2022-08-11T17:54:18;23.50;66.60
44215;DHT22;29884;47.450;19.124;2022-08-11T17:57:03;23.40;67.50
44215;DHT22;29884;47.450;19.124;2022-08-11T17:59:50;23.20;68.10
44215;DHT22;29884;47.450;19.124;2022-08-11T18:02:40;23.20;68.70
44215;DHT22;29884;47.450;19.124;2022-08-11T18:05:31;23.10;69.00
44215;DHT22;29884;47.450;19.124;2022-08-11T18:08:02;23.00;69.10
44215;DHT22;29884;47.450;19.124;2022-08-11T18:10:49;23.00;69.50
44215;DHT22;29884;47.450;19.124;2022-08-11T18:13:37;22.90;69.50
44215;DHT22;29884;47.450;19.124;2022-08-11T18:16:22;22.90;69.60
44215;DHT22;29884;47.450;19.124;2022-08-11T18:19:07;22.90;69.50
44215;DHT22;29884;47.450;19.124;2022-08-11T18:21:56;22.80;69.70
44215;DHT22;29884;47.450;19.124;2022-08-11T18:24:46;22.80;69.60
44215;DHT22;29884;47.450;19.124;2022-08-11T18:27:32;22.70;69.80
44215;DHT22;29884;47.450;19.124;2022-08-11T18:30:17;22.80;69.80
44215;DHT22;29884;47.450;19.124;2022-08-11T18:33:03;22.70;70.00
44215;DHT22;29884;47.450;19.124;2022-08-11T18:35:52;22.70;70.10
44215;DHT22;29884;47.450;19.124;2022-08-11T18:38:38;22.60;70.10
44215;DHT22;29884;47.450;19.124;2022-08-11T18:41:26;22.60;70.40
44215;DHT22;29884;47.450;19.124;2022-08-11T18:44:15;22.60;70.20
44215;DHT22;29884;47.450;19.124;2022-08-11T18:47:09;22.60;70.10
44215;DHT22;29884;47.450;19.124;2022-08-11T18:49:54;22.60;69.70
44215;DHT22;29884;47.450;19.124;2022-08-11T18:52:44;22.50;69.70
44215;DHT22;29884;47.450;19.124;2022-08-11T18:55:30;22.50;70.00
44215;DHT22;29884;47.450;19.124;2022-08-11T18:58:25;22.40;70.20
44215;DHT22;29884;47.450;19.124;2022-08-11T19:01:12;22.50;70.10
44215;DHT22;29884;47.450;19.124;2022-08-11T19:03:57;22.40;70.10
44215;DHT22;29884;47.450;19.124;2022-08-11T19:06:44;22.40;70.30
44215;DHT22;29884;47.450;19.124;2022-08-11T19:09:30;22.40;69.90
44215;DHT22;29884;47.450;19.124;2022-08-11T19:12:19;22.40;69.60
44215;DHT22;29884;47.450;19.124;2022-08-11T19:15:05;22.40;69.80
44215;DHT22;29884;47.450;19.124;2022-08-11T19:17:51;22.40;69.60
44215;DHT22;29884;47.450;19.124;2022-08-11T19:20:37;22.40;69.90
44215;DHT22;29884;47.450;19.124;2022-08-11T19:23:36;22.40;69.70
44215;DHT22;29884;47.450;19.124;2022-08-11T19:26:22;22.40;69.70
44215;DHT22;29884;47.450;19.124;2022-08-11T19:29:07;22.40;70.00
44215;DHT22;29884;47.450;19.124;2022-08-11T19:31:53;22.40;70.00
44215;DHT22;29884;47.450;19.124;2022-08-11T19:34:38;22.40;69.90
44215;DHT22;29884;47.450;19.124;2022-08-11T19:37:24;22.40;70.00
44215;DHT22;29884;47.450;19.124;2022-08-11T19:40:09;22.40;70.20
44215;DHT22;29884;47.450;19.124;2022-08-11T19:42:56;22.30;70.20
44215;DHT22;29884;47.450;19.124;2022-08-11T19:45:41;22.30;70.40
44215;DHT22;29884;47.450;19.124;2022-08-11T19:48:28;22.30;70.20
44215;DHT22;29884;47.450;19.124;2022-08-11T19:51:13;22.30;70.70
44215;DHT22;29884;47.450;19.124;2022-08-11T19:53:58;22.20;70.70
44215;DHT22;29884;47.450;19.124;2022-08-11T19:56:44;22.20;70.60
44215;DHT22;29884;47.450;19.124;2022-08-11T19:59:31;22.10;71.00
44215;DHT22;29884;47.450;19.124;2022-08-11T20:02:16;22.10;72.10
44215;DHT22;29884;47.450;19.124;2022-08-11T20:05:00;22.10;71.50
44215;DHT22;29884;47.450;19.124;2022-08-11T20:07:45;22.00;71.40
44215;DHT22;29884;47.450;19.124;2022-08-11T20:10:32;22.00;71.90
44215;DHT22;29884;47.450;19.124;2022-08-11T20:13:18;21.90;72.80
44215;DHT22;29884;47.450;19.124;2022-08-11T20:16:05;21.90;72.20
44215;DHT22;29884;47.450;19.124;2022-08-11T20:18:51;21.90;72.70
44215;DHT22;29884;47.450;19.124;2022-08-11T20:21:37;21.80;72.80